createdAt,value
2023-01-28T00:00:18.725Z,86.72
2023-01-28T00:01:18.663Z,86.91
2023-01-28T00:02:18.608Z,86.82
2023-01-28T00:03:18.537Z,86.72
2023-01-28T00:04:18.482Z,87.01
2023-01-28T00:05:19.053Z,86.44
2023-01-28T00:06:21.053Z,86.72
2023-01-28T00:07:18.291Z,87.01
2023-01-28T00:08:18.225Z,86.82
2023-01-28T00:09:18.166Z,86.82
2023-01-28T00:10:18.103Z,86.91
2023-01-28T00:11:18.053Z,86.63
2023-01-28T00:12:17.979Z,86.63
2023-01-28T00:13:17.933Z,86.63
2023-01-28T00:14:20.562Z,86.63
2023-01-28T00:15:18.074Z,86.63
2023-01-28T00:16:17.750Z,86.82
2023-01-28T00:17:17.669Z,86.91
2023-01-28T00:18:17.607Z,86.72
2023-01-28T00:19:17.548Z,86.72
2023-01-28T00:20:17.485Z,86.72
2023-01-28T00:21:17.418Z,86.72
2023-01-28T00:22:17.356Z,86.82
2023-01-28T00:23:17.300Z,87.20
2023-01-28T00:24:17.336Z,86.72
2023-01-28T00:25:17.412Z,86.72
2023-01-28T00:26:17.117Z,86.63
2023-01-28T00:27:17.048Z,86.72
2023-01-28T00:28:16.983Z,86.72
2023-01-28T00:29:16.997Z,86.72
2023-01-28T00:30:16.854Z,87.30
2023-01-28T00:31:16.910Z,86.44
2023-01-28T00:32:16.739Z,87.30
2023-01-28T00:33:16.676Z,86.63
2023-01-28T00:34:16.608Z,87.01
2023-01-28T00:35:17.082Z,87.01
2023-01-28T00:36:16.490Z,86.72
2023-01-28T00:37:16.431Z,86.91
2023-01-28T00:38:16.360Z,86.82
2023-01-28T00:39:16.302Z,86.72
2023-01-28T00:40:16.244Z,87.11
2023-01-28T00:41:16.191Z,87.30
2023-01-28T00:42:16.118Z,86.72
2023-01-28T00:43:16.056Z,87.20
2023-01-28T00:44:16.072Z,86.72
2023-01-28T00:45:16.408Z,86.72
2023-01-28T00:46:16.023Z,86.72
2023-01-28T00:47:15.800Z,86.72
2023-01-28T00:48:15.790Z,87.11
2023-01-28T00:49:15.680Z,86.72
2023-01-28T00:50:15.625Z,86.72
2023-01-28T00:51:15.558Z,87.11
2023-01-28T00:52:15.486Z,87.20
2023-01-28T00:53:15.435Z,86.72
2023-01-28T00:54:15.365Z,87.30
2023-01-28T00:55:15.789Z,86.72
2023-01-28T00:56:15.237Z,87.30
2023-01-28T00:57:15.181Z,87.20
2023-01-28T00:58:15.125Z,87.20
2023-01-28T00:59:15.053Z,86.72
2023-01-28T01:00:15.006Z,87.01
2023-01-28T01:01:14.969Z,87.01
2023-01-28T01:02:15.084Z,87.01
2023-01-28T01:03:14.805Z,86.91
2023-01-28T01:04:14.744Z,86.91
2023-01-28T01:05:15.075Z,87.30
2023-01-28T01:06:14.627Z,86.72
2023-01-28T01:07:14.561Z,86.72
2023-01-28T01:08:14.495Z,86.82
2023-01-28T01:09:14.436Z,87.20
2023-01-28T01:10:14.395Z,86.72
2023-01-28T01:11:14.312Z,86.72
2023-01-28T01:12:14.249Z,86.72
2023-01-28T01:13:14.183Z,86.72
2023-01-28T01:14:14.126Z,86.91
2023-01-28T01:15:14.352Z,86.72
2023-01-28T01:16:14.029Z,87.01
2023-01-28T01:17:13.940Z,86.91
2023-01-28T01:18:13.869Z,87.30
2023-01-28T01:19:13.817Z,87.01
2023-01-28T01:20:13.760Z,87.01
2023-01-28T01:21:13.684Z,87.30
2023-01-28T01:22:13.627Z,87.30
2023-01-28T01:23:13.564Z,87.20
2023-01-28T01:24:13.524Z,87.39
2023-01-28T01:25:13.718Z,87.20
2023-01-28T01:26:13.386Z,87.20
2023-01-28T01:27:13.314Z,87.20
2023-01-28T01:28:13.259Z,87.58
2023-01-28T01:29:13.199Z,87.39
2023-01-28T01:30:13.132Z,87.30
2023-01-28T01:31:13.632Z,87.30
2023-01-28T01:32:13.036Z,87.11
2023-01-28T01:33:12.963Z,87.11
2023-01-28T01:34:12.881Z,87.20
2023-01-28T01:35:13.184Z,87.11
2023-01-28T01:36:12.753Z,87.77
2023-01-28T01:37:12.698Z,87.20
2023-01-28T01:38:12.943Z,87.11
2023-01-28T01:39:12.565Z,87.20
2023-01-28T01:40:12.504Z,87.11
2023-01-28T01:41:12.449Z,87.20
2023-01-28T01:42:12.375Z,87.20
2023-01-28T01:43:12.324Z,87.01
2023-01-28T01:44:12.260Z,87.30
2023-01-28T01:45:12.642Z,87.39
2023-01-28T01:46:12.194Z,87.30
2023-01-28T01:47:12.072Z,87.20
2023-01-28T01:48:12.007Z,87.01
2023-01-28T01:49:11.956Z,87.01
2023-01-28T01:50:11.882Z,87.30
2023-01-28T01:51:11.821Z,87.30
2023-01-28T01:52:11.759Z,87.01
2023-01-28T01:53:11.693Z,87.20
2023-01-28T01:54:11.637Z,87.20
2023-01-28T01:55:11.583Z,87.30
2023-01-28T01:56:11.506Z,87.30
2023-01-28T01:57:11.449Z,87.01
2023-01-28T01:58:11.385Z,87.39
2023-01-28T01:59:11.323Z,87.01
2023-01-28T02:00:11.257Z,87.11
2023-01-28T02:01:11.225Z,87.20
2023-01-28T02:02:11.168Z,87.11
2023-01-28T02:03:11.191Z,87.39
2023-01-28T02:04:11.011Z,87.20
2023-01-28T02:05:10.963Z,87.39
2023-01-28T02:06:10.889Z,87.20
2023-01-28T02:07:10.840Z,87.20
2023-01-28T02:08:10.767Z,87.20
2023-01-28T02:09:10.710Z,87.20
2023-01-28T02:10:10.634Z,87.39
2023-01-28T02:11:10.580Z,87.39
2023-01-28T02:12:10.512Z,87.68
2023-01-28T02:13:10.449Z,87.39
2023-01-28T02:14:14.477Z,87.30
2023-01-28T02:15:10.336Z,87.30
2023-01-28T02:16:10.266Z,87.58
2023-01-28T02:17:10.200Z,87.49
2023-01-28T02:18:10.140Z,87.39
2023-01-28T02:19:10.076Z,87.20
2023-01-28T02:20:10.081Z,87.20
2023-01-28T02:21:09.963Z,87.87
2023-01-28T02:22:09.899Z,87.30
2023-01-28T02:23:09.836Z,87.20
2023-01-28T02:24:09.814Z,87.11
2023-01-28T02:25:09.706Z,87.30
2023-01-28T02:26:09.644Z,88.06
2023-01-28T02:27:09.591Z,87.58
2023-01-28T02:28:09.522Z,87.39
2023-01-28T02:29:09.453Z,87.20
2023-01-28T02:30:09.441Z,87.68
2023-01-28T02:31:09.481Z,87.11
2023-01-28T02:32:09.269Z,86.82
2023-01-28T02:33:09.211Z,87.30
2023-01-28T02:34:09.150Z,87.39
2023-01-28T02:35:09.084Z,87.20
2023-01-28T02:36:09.025Z,87.87
2023-01-28T02:37:08.975Z,86.91
2023-01-28T02:38:08.900Z,87.30
2023-01-28T02:39:08.836Z,87.30
2023-01-28T02:40:08.773Z,87.30
2023-01-28T02:41:08.707Z,87.39
2023-01-28T02:42:08.653Z,87.39
2023-01-28T02:43:08.590Z,86.91
2023-01-28T02:44:08.519Z,87.49
2023-01-28T02:45:08.470Z,87.49
2023-01-28T02:46:08.473Z,87.49
2023-01-28T02:47:08.338Z,87.49
2023-01-28T02:48:08.271Z,87.49
2023-01-28T02:49:08.218Z,87.39
2023-01-28T02:50:08.152Z,86.91
2023-01-28T02:51:08.105Z,87.49
2023-01-28T02:52:08.026Z,87.30
2023-01-28T02:53:07.978Z,88.15
2023-01-28T02:54:07.898Z,87.20
2023-01-28T02:55:07.834Z,87.58
2023-01-28T02:56:07.783Z,87.30
2023-01-28T02:57:07.713Z,87.39
2023-01-28T02:58:07.650Z,86.91
2023-01-28T02:59:07.589Z,88.06
2023-01-28T03:00:07.527Z,87.96
2023-01-28T03:01:07.469Z,88.06
2023-01-28T03:02:07.408Z,87.96
2023-01-28T03:03:07.344Z,88.06
2023-01-28T03:04:07.282Z,87.30
2023-01-28T03:05:07.226Z,87.68
2023-01-28T03:06:07.221Z,88.24
2023-01-28T03:07:07.094Z,88.06
2023-01-28T03:08:07.156Z,88.06
2023-01-28T03:09:06.975Z,87.01
2023-01-28T03:10:06.906Z,88.24
2023-01-28T03:11:06.851Z,88.34
2023-01-28T03:12:06.796Z,87.68
2023-01-28T03:13:06.722Z,87.68
2023-01-28T03:14:06.658Z,87.77
2023-01-28T03:15:06.594Z,88.06
2023-01-28T03:16:06.664Z,87.58
2023-01-28T03:17:06.468Z,87.96
2023-01-28T03:18:06.412Z,87.77
2023-01-28T03:19:06.346Z,87.77
2023-01-28T03:20:06.287Z,87.87
2023-01-28T03:21:06.220Z,87.96
2023-01-28T03:22:06.159Z,87.68
2023-01-28T03:23:07.885Z,88.06
2023-01-28T03:24:06.069Z,87.77
2023-01-28T03:25:05.984Z,87.96
2023-01-28T03:26:05.913Z,87.87
2023-01-28T03:27:05.855Z,87.58
2023-01-28T03:28:05.798Z,87.68
2023-01-28T03:29:05.723Z,87.77
2023-01-28T03:30:05.672Z,88.06
2023-01-28T03:31:05.677Z,88.06
2023-01-28T03:32:05.556Z,88.15
2023-01-28T03:33:05.485Z,88.53
2023-01-28T03:34:05.413Z,88.34
2023-01-28T03:35:05.360Z,87.87
2023-01-28T03:36:05.304Z,87.77
2023-01-28T03:37:05.229Z,88.62
2023-01-28T03:38:05.165Z,87.87
2023-01-28T03:39:05.103Z,88.06
2023-01-28T03:40:05.036Z,88.15
2023-01-28T03:41:04.989Z,88.72
2023-01-28T03:42:04.922Z,88.43
2023-01-28T03:43:04.859Z,88.53
2023-01-28T03:44:04.790Z,88.34
2023-01-28T03:45:04.741Z,88.43
2023-01-28T03:46:04.699Z,88.24
2023-01-28T03:47:04.605Z,88.15
2023-01-28T03:48:04.552Z,88.72
2023-01-28T03:49:04.492Z,88.43
2023-01-28T03:50:04.415Z,88.72
2023-01-28T03:51:04.363Z,88.62
2023-01-28T03:52:04.302Z,88.43
2023-01-28T03:53:04.232Z,88.91
2023-01-28T03:54:04.172Z,88.91
2023-01-28T03:55:04.116Z,88.62
2023-01-28T03:56:04.046Z,88.72
2023-01-28T03:57:03.996Z,88.81
2023-01-28T03:58:03.939Z,88.43
2023-01-28T03:59:03.861Z,88.62
2023-01-28T04:00:03.793Z,88.62
2023-01-28T04:01:03.737Z,88.62
2023-01-28T04:02:03.723Z,88.34
2023-01-28T04:03:03.672Z,88.34
2023-01-28T04:04:03.544Z,88.43
2023-01-28T04:05:03.494Z,89.29
2023-01-28T04:06:03.429Z,88.62
2023-01-28T04:07:03.365Z,89.00
2023-01-28T04:08:03.304Z,89.10
2023-01-28T04:09:03.241Z,89.20
2023-01-28T04:10:03.272Z,89.20
2023-01-28T04:11:04.105Z,88.72
2023-01-28T04:12:03.055Z,88.81
2023-01-28T04:13:02.993Z,89.00
2023-01-28T04:14:02.943Z,89.20
2023-01-28T04:15:02.899Z,88.81
2023-01-28T04:16:02.886Z,88.91
2023-01-28T04:17:02.746Z,88.34
2023-01-28T04:18:02.681Z,88.53
2023-01-28T04:19:02.618Z,89.00
2023-01-28T04:20:02.550Z,89.10
2023-01-28T04:21:02.500Z,89.00
2023-01-28T04:22:02.434Z,88.81
2023-01-28T04:23:02.371Z,88.91
2023-01-28T04:24:02.348Z,88.91
2023-01-28T04:25:02.241Z,89.00
2023-01-28T04:26:02.185Z,89.20
2023-01-28T04:27:02.137Z,89.00
2023-01-28T04:28:02.057Z,89.20
2023-01-28T04:29:02.079Z,89.20
2023-01-28T04:30:01.932Z,89.86
2023-01-28T04:31:02.016Z,89.67
2023-01-28T04:32:01.817Z,89.86
2023-01-28T04:33:01.751Z,89.10
2023-01-28T04:34:01.685Z,89.95
2023-01-28T04:35:01.618Z,89.95
2023-01-28T04:36:01.583Z,89.86
2023-01-28T04:37:01.496Z,88.91
2023-01-28T04:38:01.436Z,89.39
2023-01-28T04:39:01.372Z,89.39
2023-01-28T04:40:01.308Z,89.48
2023-01-28T04:41:01.251Z,89.48
2023-01-28T04:42:01.185Z,89.76
2023-01-28T04:43:01.130Z,89.76
2023-01-28T04:44:01.065Z,89.48
2023-01-28T04:45:01.010Z,89.39
2023-01-28T04:46:00.941Z,89.29
2023-01-28T04:47:00.874Z,89.67
2023-01-28T04:48:00.810Z,89.67
2023-01-28T04:49:00.748Z,89.29
2023-01-28T04:50:00.693Z,89.48
2023-01-28T04:51:00.629Z,89.48
2023-01-28T04:52:00.563Z,89.48
2023-01-28T04:53:00.501Z,89.48
2023-01-28T04:54:00.442Z,89.48
2023-01-28T04:55:00.395Z,89.48
2023-01-28T04:56:00.319Z,89.39
2023-01-28T04:57:00.255Z,89.39
2023-01-28T04:58:00.192Z,89.39
2023-01-28T04:59:00.126Z,89.39
2023-01-28T05:00:00.093Z,89.67
2023-01-28T05:01:00.150Z,89.39
2023-01-28T05:02:00.006Z,89.39
2023-01-28T05:02:59.884Z,89.10
2023-01-28T05:03:59.824Z,89.48
2023-01-28T05:04:59.757Z,89.67
2023-01-28T05:05:59.695Z,89.58
2023-01-28T05:06:59.628Z,89.67
2023-01-28T05:07:59.578Z,89.58
2023-01-28T05:08:59.511Z,89.58
2023-01-28T05:09:59.445Z,89.58
2023-01-28T05:10:59.388Z,89.29
2023-01-28T05:11:59.323Z,89.48
2023-01-28T05:12:59.255Z,89.86
2023-01-28T05:13:59.198Z,89.48
2023-01-28T05:14:59.137Z,89.48
2023-01-28T05:15:59.069Z,89.86
2023-01-28T05:16:59.066Z,89.39
2023-01-28T05:17:58.953Z,89.48
2023-01-28T05:18:58.883Z,89.39
2023-01-28T05:19:58.824Z,89.58
2023-01-28T05:20:58.766Z,89.58
2023-01-28T05:21:58.709Z,89.58
2023-01-28T05:22:58.639Z,89.58
2023-01-28T05:23:58.632Z,89.76
2023-01-28T05:24:58.510Z,90.05
2023-01-28T05:25:58.456Z,89.67
2023-01-28T05:26:58.395Z,89.29
2023-01-28T05:27:58.328Z,89.48
2023-01-28T05:28:58.262Z,89.39
2023-01-28T05:29:58.203Z,89.48
2023-01-28T05:30:58.199Z,89.48
2023-01-28T05:31:58.099Z,89.48
2023-01-28T05:32:58.028Z,89.39
2023-01-28T05:33:57.965Z,89.76
2023-01-28T05:34:57.894Z,89.48
2023-01-28T05:35:57.832Z,89.86
2023-01-28T05:36:57.777Z,89.76
2023-01-28T05:37:57.707Z,90.05
2023-01-28T05:38:57.646Z,90.05
2023-01-28T05:39:57.579Z,90.05
2023-01-28T05:40:57.522Z,89.76
2023-01-28T05:41:57.457Z,89.86
2023-01-28T05:42:57.400Z,89.86
2023-01-28T05:43:57.339Z,89.86
2023-01-28T05:44:57.279Z,89.95
2023-01-28T05:45:57.261Z,89.95
2023-01-28T05:46:57.143Z,89.86
2023-01-28T05:47:57.081Z,89.76
2023-01-28T05:48:57.028Z,89.76
2023-01-28T05:49:56.963Z,89.76
2023-01-28T05:50:56.903Z,89.76
2023-01-28T05:51:56.886Z,89.58
2023-01-28T05:52:56.817Z,89.58
2023-01-28T05:53:56.762Z,89.95
2023-01-28T05:54:56.652Z,89.58
2023-01-28T05:55:56.587Z,89.58
2023-01-28T05:56:56.551Z,89.76
2023-01-28T05:57:56.472Z,89.95
2023-01-28T05:58:56.399Z,89.67
2023-01-28T05:59:56.339Z,89.76
2023-01-28T06:00:56.279Z,89.39
2023-01-28T06:01:56.211Z,89.76
2023-01-28T06:02:56.153Z,89.76
2023-01-28T06:03:56.092Z,89.58
2023-01-28T06:04:56.093Z,89.95
2023-01-28T06:05:55.963Z,89.48
2023-01-28T06:06:55.904Z,89.58
2023-01-28T06:07:55.846Z,89.95
2023-01-28T06:08:55.783Z,90.05
2023-01-28T06:09:55.718Z,89.95
2023-01-28T06:10:55.655Z,89.48
2023-01-28T06:11:55.593Z,89.48
2023-01-28T06:13:00.149Z,89.39
2023-01-28T06:13:55.474Z,89.95
2023-01-28T06:14:55.411Z,89.95
2023-01-28T06:15:55.408Z,89.86
2023-01-28T06:16:55.281Z,89.58
2023-01-28T06:17:55.223Z,90.05
2023-01-28T06:18:55.162Z,90.05
2023-01-28T06:19:55.099Z,89.76
2023-01-28T06:20:55.041Z,89.95
2023-01-28T06:21:54.969Z,89.95
2023-01-28T06:22:54.911Z,90.05
2023-01-28T06:23:54.875Z,89.95
2023-01-28T06:24:54.794Z,90.05
2023-01-28T06:25:54.726Z,89.86
2023-01-28T06:26:54.659Z,89.86
2023-01-28T06:27:54.601Z,89.39
2023-01-28T06:28:54.536Z,89.76
2023-01-28T06:29:54.487Z,89.76
2023-01-28T06:30:54.528Z,89.48
2023-01-28T06:31:54.435Z,89.86
2023-01-28T06:32:54.290Z,89.95
2023-01-28T06:33:54.339Z,89.86
2023-01-28T06:34:54.158Z,90.05
2023-01-28T06:35:54.103Z,89.86
2023-01-28T06:36:54.045Z,89.58
2023-01-28T06:37:53.985Z,89.86
2023-01-28T06:38:53.911Z,90.05
2023-01-28T06:39:53.853Z,89.67
2023-01-28T06:40:53.785Z,89.86
2023-01-28T06:41:53.726Z,89.86
2023-01-28T06:42:53.673Z,89.86
2023-01-28T06:43:53.606Z,89.76
2023-01-28T06:44:53.545Z,89.86
2023-01-28T06:45:53.478Z,89.67
2023-01-28T06:46:53.416Z,89.86
2023-01-28T06:47:53.356Z,89.86
2023-01-28T06:48:53.306Z,89.86
2023-01-28T06:49:53.253Z,89.39
2023-01-28T06:50:53.167Z,90.33
2023-01-28T06:51:53.110Z,89.39
2023-01-28T06:52:53.055Z,89.48
2023-01-28T06:53:52.981Z,90.14
2023-01-28T06:54:52.918Z,89.95
2023-01-28T06:55:52.867Z,90.33
2023-01-28T06:56:52.793Z,90.43
2023-01-28T06:57:52.737Z,90.33
2023-01-28T06:58:52.673Z,90.62
2023-01-28T06:59:52.612Z,90.52
2023-01-28T07:00:52.543Z,90.52
2023-01-28T07:01:52.594Z,90.24
2023-01-28T07:02:52.445Z,90.62
2023-01-28T07:03:52.363Z,90.24
2023-01-28T07:04:52.297Z,90.62
2023-01-28T07:05:52.233Z,90.33
2023-01-28T07:06:52.180Z,90.24
2023-01-28T07:07:52.113Z,90.62
2023-01-28T07:08:52.059Z,90.62
2023-01-28T07:09:51.990Z,90.62
2023-01-28T07:10:51.931Z,90.62
2023-01-28T07:11:51.863Z,90.24
2023-01-28T07:12:51.808Z,90.62
2023-01-28T07:13:51.743Z,90.33
2023-01-28T07:14:51.675Z,90.62
2023-01-28T07:15:51.621Z,90.05
2023-01-28T07:16:51.591Z,90.43
2023-01-28T07:17:51.494Z,90.43
2023-01-28T07:18:51.434Z,90.52
2023-01-28T07:19:51.367Z,90.43
2023-01-28T07:20:51.300Z,90.43
2023-01-28T07:21:51.247Z,90.52
2023-01-28T07:22:51.179Z,90.43
2023-01-28T07:23:51.139Z,90.43
2023-01-28T07:24:51.071Z,90.24
2023-01-28T07:25:50.995Z,90.33
2023-01-28T07:26:50.927Z,90.33
2023-01-28T07:27:50.889Z,90.43
2023-01-28T07:28:50.810Z,90.24
2023-01-28T07:29:50.747Z,90.05
2023-01-28T07:30:53.308Z,90.14
2023-01-28T07:31:50.810Z,90.05
2023-01-28T07:32:50.556Z,90.14
2023-01-28T07:33:50.493Z,90.24
2023-01-28T07:34:50.447Z,90.05
2023-01-28T07:35:50.378Z,90.33
2023-01-28T07:36:50.316Z,90.33
2023-01-28T07:37:50.246Z,90.24
2023-01-28T07:38:50.188Z,90.24
2023-01-28T07:39:50.120Z,90.33
2023-01-28T07:40:50.063Z,91.00
2023-01-28T07:41:50.003Z,90.81
2023-01-28T07:42:49.945Z,91.19
2023-01-28T07:43:49.872Z,90.90
2023-01-28T07:44:49.812Z,89.95
2023-01-28T07:45:49.758Z,90.90
2023-01-28T07:46:49.717Z,90.90
2023-01-28T07:47:49.638Z,90.90
2023-01-28T07:48:49.562Z,91.00
2023-01-28T07:49:49.502Z,91.00
2023-01-28T07:50:49.446Z,90.90
2023-01-28T07:51:49.377Z,90.90
2023-01-28T07:52:49.315Z,90.90
2023-01-28T07:53:49.258Z,90.62
2023-01-28T07:54:49.194Z,90.90
2023-01-28T07:55:49.144Z,90.90
2023-01-28T07:56:49.073Z,90.90
2023-01-28T07:57:49.007Z,90.90
2023-01-28T07:58:48.976Z,91.00
2023-01-28T07:59:48.879Z,91.00
2023-01-28T08:00:48.816Z,90.71
2023-01-28T08:01:48.762Z,91.00
2023-01-28T08:02:48.705Z,90.71
2023-01-28T08:03:48.633Z,91.19
2023-01-28T08:04:48.748Z,90.81
2023-01-28T08:05:48.549Z,90.71
2023-01-28T08:06:48.440Z,91.19
2023-01-28T08:07:48.399Z,90.71
2023-01-28T08:08:48.317Z,90.71
2023-01-28T08:09:48.259Z,90.81
2023-01-28T08:10:48.196Z,90.62
2023-01-28T08:11:48.137Z,90.90
2023-01-28T08:12:48.077Z,90.81
2023-01-28T08:13:48.011Z,90.71
2023-01-28T08:14:47.950Z,90.52
2023-01-28T08:15:47.953Z,91.00
2023-01-28T08:16:47.826Z,90.62
2023-01-28T08:17:47.760Z,90.52
2023-01-28T08:18:47.701Z,90.71
2023-01-28T08:19:47.638Z,90.81
2023-01-28T08:20:47.599Z,90.71
2023-01-28T08:21:47.518Z,90.52
2023-01-28T08:22:47.450Z,90.43
2023-01-28T08:23:47.386Z,90.52
2023-01-28T08:24:47.326Z,90.62
2023-01-28T08:25:47.295Z,90.52
2023-01-28T08:26:47.206Z,90.62
2023-01-28T08:27:47.143Z,90.81
2023-01-28T08:28:47.088Z,90.62
2023-01-28T08:29:47.031Z,90.81
2023-01-28T08:30:47.138Z,91.38
2023-01-28T08:31:46.997Z,90.52
2023-01-28T08:32:46.837Z,90.43
2023-01-28T08:33:46.766Z,90.62
2023-01-28T08:34:46.704Z,90.52
2023-01-28T08:35:46.652Z,90.90
2023-01-28T08:36:46.583Z,90.62
2023-01-28T08:37:46.515Z,91.19
2023-01-28T08:38:46.461Z,90.52
2023-01-28T08:39:46.643Z,90.90
2023-01-28T08:40:46.352Z,90.43
2023-01-28T08:41:46.266Z,90.52
2023-01-28T08:42:46.227Z,91.09
2023-01-28T08:43:46.149Z,91.47
2023-01-28T08:44:46.088Z,90.71
2023-01-28T08:45:46.025Z,91.09
2023-01-28T08:46:46.005Z,91.38
2023-01-28T08:47:45.894Z,91.09
2023-01-28T08:48:45.835Z,90.62
2023-01-28T08:49:45.786Z,90.62
2023-01-28T08:50:45.714Z,90.62
2023-01-28T08:51:45.652Z,91.09
2023-01-28T08:52:45.589Z,90.52
2023-01-28T08:53:45.525Z,91.09
2023-01-28T08:54:45.467Z,91.19
2023-01-28T08:55:45.405Z,91.19
2023-01-28T08:56:45.363Z,91.38
2023-01-28T08:57:45.294Z,90.81
2023-01-28T08:58:45.214Z,90.62
2023-01-28T08:59:45.190Z,91.28
2023-01-28T09:00:45.121Z,90.62
2023-01-28T09:01:45.069Z,90.62
2023-01-28T09:02:44.972Z,91.00
2023-01-28T09:03:44.974Z,91.19
2023-01-28T09:04:44.844Z,91.00
2023-01-28T09:05:44.779Z,91.00
2023-01-28T09:06:44.716Z,91.19
2023-01-28T09:08:20.177Z,91.09
2023-01-28T09:08:44.595Z,91.09
2023-01-28T09:09:44.529Z,91.19
2023-01-28T09:10:44.468Z,91.19
2023-01-28T09:11:47.182Z,91.09
2023-01-28T09:12:44.341Z,91.09
2023-01-28T09:13:44.284Z,91.19
2023-01-28T09:14:44.228Z,91.38
2023-01-28T09:15:44.259Z,91.38
2023-01-28T09:16:44.100Z,91.09
2023-01-28T09:17:44.038Z,91.47
2023-01-28T09:18:43.974Z,91.38
2023-01-28T09:19:43.921Z,90.62
2023-01-28T09:20:43.848Z,91.47
2023-01-28T09:21:43.791Z,91.38
2023-01-28T09:22:43.723Z,91.09
2023-01-28T09:23:43.682Z,91.19
2023-01-28T09:24:43.614Z,91.00
2023-01-28T09:25:43.541Z,91.09
2023-01-28T09:26:43.478Z,91.00
2023-01-28T09:27:43.415Z,91.00
2023-01-28T09:28:43.352Z,91.09
2023-01-28T09:29:43.287Z,91.19
2023-01-28T09:30:43.265Z,91.19
2023-01-28T09:31:43.191Z,91.19
2023-01-28T09:32:43.109Z,90.62
2023-01-28T09:33:43.042Z,90.62
2023-01-28T09:34:42.980Z,91.09
2023-01-28T09:35:42.921Z,91.09
2023-01-28T09:36:42.850Z,91.19
2023-01-28T09:37:42.799Z,91.19
2023-01-28T09:38:42.732Z,90.90
2023-01-28T09:39:42.671Z,91.19
2023-01-28T09:40:42.616Z,91.09
2023-01-28T09:41:42.542Z,91.47
2023-01-28T09:42:42.486Z,90.52
2023-01-28T09:43:42.424Z,90.52
2023-01-28T09:44:42.365Z,90.71
2023-01-28T09:45:42.293Z,91.38
2023-01-28T09:46:42.251Z,90.62
2023-01-28T09:47:42.171Z,90.52
2023-01-28T09:48:42.111Z,90.52
2023-01-28T09:49:42.061Z,91.09
2023-01-28T09:50:42.009Z,91.47
2023-01-28T09:51:41.921Z,91.09
2023-01-28T09:52:41.867Z,91.38
2023-01-28T09:53:41.798Z,90.52
2023-01-28T09:54:41.737Z,90.52
2023-01-28T09:55:41.673Z,90.52
2023-01-28T09:56:41.621Z,91.09
2023-01-28T09:57:41.552Z,91.38
2023-01-28T09:58:41.487Z,91.28
2023-01-28T09:59:42.192Z,90.52
2023-01-28T10:00:41.408Z,90.52
2023-01-28T10:01:41.305Z,90.81
2023-01-28T10:02:41.243Z,90.81
2023-01-28T10:03:41.212Z,90.90
2023-01-28T10:04:41.124Z,90.52
2023-01-28T10:05:41.105Z,90.81
2023-01-28T10:06:40.993Z,90.52
2023-01-28T10:07:40.937Z,90.62
2023-01-28T10:08:40.869Z,90.62
2023-01-28T10:09:40.811Z,90.52
2023-01-28T10:10:40.742Z,90.52
2023-01-28T10:11:40.689Z,90.71
2023-01-28T10:12:40.655Z,91.00
2023-01-28T10:13:40.555Z,90.71
2023-01-28T10:14:40.499Z,90.81
2023-01-28T10:15:40.431Z,90.52
2023-01-28T10:16:40.370Z,90.62
2023-01-28T10:17:40.420Z,90.62
2023-01-28T10:18:40.248Z,90.71
2023-01-28T10:19:40.193Z,90.52
2023-01-28T10:20:40.131Z,90.71
2023-01-28T10:21:40.061Z,90.71
2023-01-28T10:22:41.712Z,91.00
2023-01-28T10:23:39.941Z,90.90
2023-01-28T10:24:39.879Z,90.90
2023-01-28T10:25:39.817Z,90.81
2023-01-28T10:26:39.750Z,90.71
2023-01-28T10:27:39.691Z,90.81
2023-01-28T10:28:39.629Z,90.81
2023-01-28T10:29:39.573Z,90.90
2023-01-28T10:30:39.525Z,90.52
2023-01-28T10:31:39.667Z,90.81
2023-01-28T10:32:39.375Z,90.81
2023-01-28T10:33:39.323Z,90.71
2023-01-28T10:34:39.252Z,91.19
2023-01-28T10:35:39.220Z,90.62
2023-01-28T10:36:39.139Z,90.71
2023-01-28T10:37:39.075Z,90.71
2023-01-28T10:38:39.003Z,90.81
2023-01-28T10:39:38.947Z,91.00
2023-01-28T10:40:38.881Z,90.81
2023-01-28T10:41:48.499Z,90.71
2023-01-28T10:42:38.762Z,91.19
2023-01-28T10:43:38.699Z,90.81
2023-01-28T10:44:38.629Z,90.81
2023-01-28T10:45:38.628Z,90.90
2023-01-28T10:46:38.509Z,90.81
2023-01-28T10:47:38.458Z,90.71
2023-01-28T10:48:38.387Z,91.00
2023-01-28T10:49:38.324Z,90.81
2023-01-28T10:50:38.263Z,91.00
2023-01-28T10:51:38.213Z,90.90
2023-01-28T10:52:38.149Z,91.00
2023-01-28T10:53:38.079Z,91.00
2023-01-28T10:54:38.012Z,90.71
2023-01-28T10:55:37.948Z,90.81
2023-01-28T10:56:37.890Z,90.71
2023-01-28T10:57:37.828Z,91.00
2023-01-28T10:58:37.769Z,90.71
2023-01-28T10:59:37.704Z,90.62
2023-01-28T11:00:37.652Z,91.00
2023-01-28T11:01:37.580Z,90.71
2023-01-28T11:02:37.626Z,91.00
2023-01-28T11:03:37.455Z,91.00
2023-01-28T11:04:37.390Z,90.62
2023-01-28T11:05:37.328Z,90.90
2023-01-28T11:06:37.267Z,90.90
2023-01-28T11:07:37.203Z,90.81
2023-01-28T11:08:37.149Z,90.90
2023-01-28T11:09:37.088Z,90.81
2023-01-28T11:10:37.019Z,90.90
2023-01-28T11:11:36.959Z,90.90
2023-01-28T11:12:36.896Z,90.81
2023-01-28T11:13:36.841Z,90.81
2023-01-28T11:14:36.773Z,90.90
2023-01-28T11:15:36.715Z,90.81
2023-01-28T11:16:36.653Z,91.19
2023-01-28T11:17:36.642Z,91.19
2023-01-28T11:18:36.539Z,90.71
2023-01-28T11:19:36.494Z,91.28
2023-01-28T11:20:36.413Z,90.81
2023-01-28T11:21:36.346Z,90.81
2023-01-28T11:22:36.276Z,90.71
2023-01-28T11:23:36.216Z,90.81
2023-01-28T11:24:36.178Z,90.71
2023-01-28T11:25:36.092Z,90.81
2023-01-28T11:26:36.040Z,90.71
2023-01-28T11:27:35.974Z,90.71
2023-01-28T11:28:35.905Z,91.00
2023-01-28T11:29:35.847Z,90.81
2023-01-28T11:30:35.817Z,90.81
2023-01-28T11:31:35.777Z,90.62
2023-01-28T11:32:35.660Z,91.19
2023-01-28T11:33:35.598Z,91.28
2023-01-28T11:34:35.532Z,90.90
2023-01-28T11:35:35.473Z,90.81
2023-01-28T11:36:35.418Z,90.81
2023-01-28T11:37:35.350Z,90.90
2023-01-28T11:38:35.300Z,90.81
2023-01-28T11:39:35.219Z,90.71
2023-01-28T11:40:35.168Z,90.81
2023-01-28T11:41:35.148Z,90.71
2023-01-28T11:42:35.037Z,90.71
2023-01-28T11:43:34.996Z,90.71
2023-01-28T11:44:34.933Z,90.90
2023-01-28T11:45:34.930Z,90.71
2023-01-28T11:46:34.795Z,90.52
2023-01-28T11:47:34.726Z,90.81
2023-01-28T11:48:34.665Z,90.62
2023-01-28T11:49:34.615Z,90.52
2023-01-28T11:50:34.547Z,90.81
2023-01-28T11:51:34.513Z,90.71
2023-01-28T11:52:55.245Z,90.71
2023-01-28T11:53:34.356Z,90.62
2023-01-28T11:54:34.295Z,90.71
2023-01-28T11:55:34.234Z,90.52
2023-01-28T11:56:34.189Z,90.57
2023-01-28T11:57:34.101Z,90.52
2023-01-28T11:58:34.042Z,90.62
2023-01-28T11:59:33.983Z,90.62
2023-01-28T12:00:33.935Z,91.19
2023-01-28T12:01:33.859Z,91.09
2023-01-28T12:02:33.797Z,91.00
2023-01-28T12:03:33.735Z,91.00
2023-01-28T12:04:33.718Z,90.90
2023-01-28T12:05:34.217Z,91.19
2023-01-28T12:06:35.576Z,90.90
2023-01-28T12:07:33.484Z,91.28
2023-01-28T12:08:33.420Z,91.00
2023-01-28T12:09:33.370Z,91.38
2023-01-28T12:10:33.300Z,91.56
2023-01-28T12:11:33.234Z,91.28
2023-01-28T12:12:33.180Z,91.00
2023-01-28T12:13:33.112Z,91.28
2023-01-28T12:14:33.057Z,90.90
2023-01-28T12:15:33.012Z,90.90
2023-01-28T12:16:32.930Z,91.00
2023-01-28T12:17:32.865Z,91.00
2023-01-28T12:18:32.818Z,91.09
2023-01-28T12:19:32.742Z,91.19
2023-01-28T12:20:32.681Z,91.38
2023-01-28T12:21:32.611Z,91.28
2023-01-28T12:22:32.565Z,91.09
2023-01-28T12:23:32.491Z,91.28
2023-01-28T12:24:32.466Z,91.28
2023-01-28T12:25:32.370Z,91.28
2023-01-28T12:26:32.307Z,91.28
2023-01-28T12:27:32.255Z,91.28
2023-01-28T12:28:32.185Z,91.09
2023-01-28T12:29:32.161Z,91.00
2023-01-28T12:30:32.052Z,91.09
2023-01-28T12:31:32.132Z,91.47
2023-01-28T12:32:31.933Z,91.38
2023-01-28T12:33:31.869Z,91.56
2023-01-28T12:34:31.811Z,91.38
2023-01-28T12:35:31.747Z,91.56
2023-01-28T12:36:31.681Z,91.28
2023-01-28T12:37:31.636Z,91.28
2023-01-28T12:38:31.566Z,91.28
2023-01-28T12:39:31.500Z,91.38
2023-01-28T12:40:33.567Z,91.75
2023-01-28T12:41:31.378Z,91.38
2023-01-28T12:42:31.320Z,91.38
2023-01-28T12:43:31.254Z,91.75
2023-01-28T12:44:31.197Z,91.75
2023-01-28T12:45:31.170Z,91.75
2023-01-28T12:46:31.063Z,92.04
2023-01-28T12:47:31.004Z,91.94
2023-01-28T12:48:30.940Z,91.85
2023-01-28T12:49:30.882Z,91.94
2023-01-28T12:50:30.824Z,92.04
2023-01-28T12:51:30.752Z,92.04